createdAt,value
2022-12-18T00:01:04.001Z,26.98
2022-12-18T00:03:30.370Z,24.98
2022-12-18T00:05:56.729Z,23.55
2022-12-18T00:08:23.222Z,24.30
2022-12-18T00:10:49.577Z,25.10
2022-12-18T00:13:15.930Z,20.45
2022-12-18T00:15:42.267Z,17.88
2022-12-18T00:18:08.656Z,20.05
2022-12-18T00:20:39.143Z,18.00
2022-12-18T00:23:06.339Z,18.60
2022-12-18T00:25:36.620Z,18.35
2022-12-18T00:28:04.129Z,18.70
2022-12-18T00:30:30.673Z,17.98
2022-12-18T00:32:58.088Z,17.08
2022-12-18T00:35:24.438Z,16.30
2022-12-18T00:37:50.781Z,17.45
2022-12-18T00:40:17.135Z,14.63
2022-12-18T00:42:58.493Z,13.98
2022-12-18T00:45:34.024Z,18.42
2022-12-18T00:48:00.428Z,15.10
2022-12-18T00:50:26.852Z,17.60
2022-12-18T00:52:53.171Z,18.35
2022-12-18T00:55:19.688Z,17.55
2022-12-18T00:57:46.045Z,18.35
2022-12-18T01:00:15.093Z,19.88
2022-12-18T01:02:41.650Z,22.10
2022-12-18T01:05:08.938Z,17.75
2022-12-18T01:07:35.321Z,15.80
2022-12-18T01:10:01.722Z,16.25
2022-12-18T01:12:28.076Z,17.33
2022-12-18T01:14:54.404Z,18.55
2022-12-18T01:17:20.760Z,20.52
2022-12-18T01:19:47.321Z,17.35
2022-12-18T01:22:13.661Z,19.08
2022-12-18T01:24:40.021Z,17.33
2022-12-18T01:27:06.363Z,18.35
2022-12-18T01:29:32.705Z,19.75
2022-12-18T01:31:59.152Z,19.30
2022-12-18T01:34:25.586Z,18.90
2022-12-18T01:36:54.597Z,18.42
2022-12-18T01:39:20.980Z,18.02
2022-12-18T01:42:02.578Z,18.77
2022-12-18T01:44:47.677Z,22.27
2022-12-18T01:47:37.390Z,21.95
2022-12-18T01:50:23.981Z,19.38
2022-12-18T01:52:59.143Z,16.63
2022-12-18T01:55:27.164Z,22.42
2022-12-18T02:00:20.852Z,20.33
2022-12-18T02:02:47.730Z,20.23
2022-12-18T02:05:17.435Z,29.92
2022-12-18T02:08:06.785Z,27.58
2022-12-18T02:10:51.734Z,26.73
2022-12-18T02:13:28.367Z,23.05
2022-12-18T02:15:58.261Z,22.88
2022-12-18T02:18:36.115Z,23.52
2022-12-18T02:21:02.421Z,22.38
2022-12-18T02:23:39.501Z,26.17
2022-12-18T02:26:08.890Z,24.45
2022-12-18T02:28:43.853Z,23.27
2022-12-18T02:31:15.145Z,23.23
2022-12-18T02:33:42.348Z,20.50
2022-12-18T02:36:09.561Z,14.75
2022-12-18T02:38:36.097Z,19.80
2022-12-18T02:41:03.103Z,16.65
2022-12-18T02:43:30.698Z,14.68
2022-12-18T02:45:58.723Z,21.30
2022-12-18T02:51:07.939Z,15.55
2022-12-18T02:53:43.318Z,14.75
2022-12-18T02:56:12.658Z,17.77
2022-12-18T02:58:41.965Z,20.13
2022-12-18T03:01:17.489Z,26.35
2022-12-18T03:03:43.934Z,19.92
2022-12-18T03:06:13.743Z,21.08
2022-12-18T03:08:45.464Z,18.50
2022-12-18T03:11:13.073Z,19.30
2022-12-18T03:13:41.788Z,19.98
2022-12-18T03:16:11.305Z,21.90
2022-12-18T03:18:39.820Z,19.17
2022-12-18T03:21:07.060Z,17.10
2022-12-18T03:23:35.702Z,21.83
2022-12-18T03:26:07.419Z,21.70
2022-12-18T03:28:36.066Z,26.50
2022-12-18T03:31:02.815Z,26.58
2022-12-18T03:33:36.379Z,29.58
2022-12-18T03:36:03.032Z,26.48
2022-12-18T03:38:29.406Z,22.17
2022-12-18T03:41:14.116Z,22.20
2022-12-18T03:43:40.761Z,19.73
2022-12-18T03:46:20.465Z,18.40
2022-12-18T03:48:51.847Z,20.00
2022-12-18T03:51:24.074Z,18.67
2022-12-18T03:53:55.945Z,16.92
2022-12-18T03:56:22.617Z,15.48
2022-12-18T03:58:49.736Z,13.45
2022-12-18T04:01:17.436Z,15.30
2022-12-18T04:03:45.723Z,17.17
2022-12-18T04:06:12.728Z,14.65
2022-12-18T04:08:40.931Z,13.85
2022-12-18T04:11:07.278Z,15.38
2022-12-18T04:13:35.053Z,14.70
2022-12-18T04:16:02.299Z,13.98
2022-12-18T04:18:28.708Z,16.70
2022-12-18T04:20:55.072Z,18.77
2022-12-18T04:23:22.161Z,18.30
2022-12-18T04:25:49.002Z,19.92
2022-12-18T04:28:15.393Z,17.13
2022-12-18T04:30:41.852Z,19.20
2022-12-18T04:33:11.881Z,17.23
2022-12-18T04:35:38.317Z,18.63
2022-12-18T04:38:04.678Z,17.42
2022-12-18T04:40:32.491Z,16.55
2022-12-18T04:42:58.863Z,19.40
2022-12-18T04:45:25.217Z,16.75
2022-12-18T04:47:51.584Z,22.80
2022-12-18T04:50:18.114Z,20.17
2022-12-18T04:52:44.461Z,21.00
2022-12-18T04:55:10.900Z,20.08
2022-12-18T04:57:37.223Z,16.40
2022-12-18T05:00:03.955Z,18.02
2022-12-18T05:02:30.402Z,22.83
2022-12-18T05:04:56.811Z,15.73
2022-12-18T05:07:23.200Z,19.13
2022-12-18T05:09:49.562Z,18.73
2022-12-18T05:12:15.887Z,22.23
2022-12-18T05:14:42.390Z,18.83
2022-12-18T05:17:08.780Z,16.20
2022-12-18T05:19:35.199Z,15.32
2022-12-18T05:22:02.400Z,18.60
2022-12-18T05:24:28.764Z,17.30
2022-12-18T05:26:55.149Z,14.45
2022-12-18T05:29:21.524Z,12.10
2022-12-18T05:31:47.948Z,12.70
2022-12-18T05:34:14.412Z,15.65
2022-12-18T05:36:40.954Z,12.70
2022-12-18T05:39:07.877Z,13.48
2022-12-18T05:41:34.433Z,12.10
2022-12-18T05:44:01.140Z,12.30
2022-12-18T05:46:27.523Z,13.07
2022-12-18T05:48:53.927Z,12.80
2022-12-18T05:51:21.886Z,11.48
2022-12-18T05:56:18.988Z,13.57
2022-12-18T05:58:45.746Z,14.85
2022-12-18T06:01:12.039Z,13.00
2022-12-18T06:03:38.525Z,13.15
2022-12-18T06:06:05.083Z,16.08
2022-12-18T06:08:31.752Z,12.98
2022-12-18T06:10:58.199Z,15.27
2022-12-18T06:13:24.515Z,15.43
2022-12-18T06:15:50.882Z,13.05
2022-12-18T06:18:17.212Z,14.48
2022-12-18T06:20:43.863Z,16.13
2022-12-18T06:23:10.417Z,16.83
2022-12-18T06:25:38.529Z,16.15
2022-12-18T06:30:31.083Z,19.75
2022-12-18T06:32:57.645Z,20.38
2022-12-18T06:35:24.584Z,18.98
2022-12-18T06:37:50.950Z,19.42
2022-12-18T06:40:17.661Z,20.48
2022-12-18T06:42:44.013Z,18.55
2022-12-18T06:45:10.590Z,18.85
2022-12-18T06:47:36.996Z,19.45
2022-12-18T06:50:03.567Z,20.73
2022-12-18T06:52:32.302Z,18.63
2022-12-18T06:54:58.805Z,17.55
2022-12-18T06:57:25.169Z,16.50
2022-12-18T06:59:51.596Z,18.45
2022-12-18T07:02:18.609Z,17.00
2022-12-18T07:04:44.988Z,18.02
2022-12-18T07:07:11.305Z,18.55
2022-12-18T07:09:37.659Z,19.75
2022-12-18T07:12:05.900Z,18.45
2022-12-18T07:14:32.227Z,20.50
2022-12-18T07:16:58.706Z,20.40
2022-12-18T07:19:26.447Z,19.35
2022-12-18T07:21:52.945Z,17.88
2022-12-18T07:24:19.266Z,15.23
2022-12-18T07:26:48.667Z,15.48
2022-12-18T07:29:15.094Z,17.33
2022-12-18T07:31:41.601Z,16.90
2022-12-18T07:34:11.475Z,14.38
2022-12-18T07:36:37.819Z,18.13
2022-12-18T07:39:04.157Z,15.43
2022-12-18T07:41:30.533Z,14.07
2022-12-18T07:43:56.865Z,14.05
2022-12-18T07:46:23.552Z,12.27
2022-12-18T07:48:50.441Z,13.48
2022-12-18T07:51:17.238Z,18.13
2022-12-18T07:53:44.790Z,13.63
2022-12-18T07:56:29.512Z,14.02
2022-12-18T07:58:56.390Z,15.10
2022-12-18T08:01:22.809Z,17.15
2022-12-18T08:03:49.909Z,15.35
2022-12-18T08:06:18.450Z,12.98
2022-12-18T08:08:44.789Z,16.65
2022-12-18T08:11:11.088Z,13.38
2022-12-18T08:13:37.606Z,13.77
2022-12-18T08:16:06.085Z,13.73
2022-12-18T08:18:36.463Z,15.00
2022-12-18T08:21:12.493Z,14.27
2022-12-18T08:23:42.635Z,15.68
2022-12-18T08:26:09.684Z,13.00
2022-12-18T08:28:36.029Z,15.27
2022-12-18T08:31:02.475Z,16.85
2022-12-18T08:35:56.854Z,16.52
2022-12-18T08:38:24.209Z,16.80
2022-12-18T08:40:50.516Z,16.98
2022-12-18T08:43:35.644Z,21.45
2022-12-18T08:46:02.076Z,16.30
2022-12-18T08:48:28.461Z,17.98
2022-12-18T08:50:58.946Z,18.42
2022-12-18T08:53:25.514Z,21.52
2022-12-18T08:55:51.848Z,19.67
2022-12-18T08:58:18.313Z,18.90
2022-12-18T09:00:45.093Z,21.35
2022-12-18T09:03:12.878Z,20.77
2022-12-18T09:05:39.380Z,22.50
2022-12-18T09:08:05.724Z,18.88
2022-12-18T09:10:32.266Z,21.30
2022-12-18T09:12:58.832Z,22.20
2022-12-18T09:15:25.185Z,21.10
2022-12-18T09:17:51.536Z,24.13
2022-12-18T09:20:18.314Z,19.00
2022-12-18T09:22:44.713Z,21.73
2022-12-18T09:25:11.145Z,19.98
2022-12-18T09:27:37.554Z,20.60
2022-12-18T09:30:04.709Z,21.42
2022-12-18T09:32:31.057Z,23.23
2022-12-18T09:34:57.353Z,23.20
2022-12-18T09:37:23.705Z,19.92
2022-12-18T09:39:50.020Z,21.95
2022-12-18T09:42:21.441Z,23.88
2022-12-18T09:44:54.917Z,26.23
2022-12-18T09:47:29.825Z,20.65
2022-12-18T09:49:59.056Z,25.77
2022-12-18T09:52:25.372Z,23.10
2022-12-18T09:54:55.912Z,22.95
2022-12-18T09:57:23.372Z,21.67
2022-12-18T10:00:09.980Z,24.65
2022-12-18T10:02:36.410Z,23.58
2022-12-18T10:05:02.830Z,23.42
2022-12-18T10:07:37.513Z,22.70
2022-12-18T10:10:23.843Z,26.33
2022-12-18T10:13:04.701Z,23.73
2022-12-18T10:15:51.706Z,25.05
2022-12-18T10:18:21.893Z,24.30
2022-12-18T10:21:01.067Z,25.45
2022-12-18T10:23:30.416Z,26.52
2022-12-18T10:26:02.557Z,21.02
2022-12-18T10:28:30.508Z,23.55
2022-12-18T10:30:56.876Z,26.45
2022-12-18T10:33:24.521Z,29.10
2022-12-18T10:35:54.921Z,28.30
2022-12-18T10:38:26.619Z,30.50
2022-12-18T10:40:52.945Z,25.05
2022-12-18T10:43:24.013Z,26.10
2022-12-18T10:46:14.067Z,24.50
2022-12-18T10:48:40.720Z,26.85
2022-12-18T10:51:12.102Z,24.83
2022-12-18T10:53:41.225Z,24.48
2022-12-18T10:56:07.778Z,27.05
2022-12-18T10:58:35.386Z,25.42
2022-12-18T11:01:13.034Z,27.52
2022-12-18T11:03:41.188Z,26.38
2022-12-18T11:06:10.554Z,29.70
2022-12-18T11:08:37.685Z,28.38
2022-12-18T11:11:05.118Z,27.15
2022-12-18T11:13:32.488Z,27.60
2022-12-18T11:15:59.373Z,29.25
2022-12-18T11:18:35.936Z,26.73
2022-12-18T11:21:09.708Z,26.08
2022-12-18T11:23:37.165Z,27.00
2022-12-18T11:26:04.992Z,28.00
2022-12-18T11:28:46.520Z,34.58
2022-12-18T11:31:16.055Z,38.42
2022-12-18T11:34:04.869Z,41.22
2022-12-18T11:36:37.332Z,41.50
2022-12-18T11:39:11.880Z,45.70
2022-12-18T11:42:05.840Z,37.65
2022-12-18T11:44:52.459Z,32.72
2022-12-18T11:47:26.512Z,28.25
2022-12-18T11:49:53.694Z,30.88
2022-12-18T11:52:22.580Z,29.20
2022-12-18T11:54:52.724Z,28.83
2022-12-18T11:57:22.213Z,31.00
2022-12-18T11:59:48.521Z,30.67
2022-12-18T12:02:17.959Z,27.70
2022-12-18T12:05:07.361Z,25.50
2022-12-18T12:07:56.328Z,24.15
2022-12-18T12:10:35.950Z,24.52
2022-12-18T12:13:20.892Z,25.25
2022-12-18T12:16:16.833Z,24.10
2022-12-18T12:18:52.172Z,20.15
2022-12-18T12:21:22.281Z,23.27
2022-12-18T12:23:48.580Z,21.65
2022-12-18T12:26:17.647Z,20.42
2022-12-18T12:28:44.144Z,19.15
2022-12-18T12:31:13.372Z,19.67
2022-12-18T12:33:43.170Z,18.58
2022-12-18T12:36:27.544Z,18.92
2022-12-18T12:38:56.597Z,18.17
2022-12-18T12:41:43.183Z,17.58
2022-12-18T12:46:40.406Z,17.08
2022-12-18T12:49:20.340Z,13.75
2022-12-18T12:51:54.970Z,16.52
2022-12-18T12:54:24.220Z,17.20
2022-12-18T12:57:02.527Z,14.95
2022-12-18T12:59:32.060Z,11.93
2022-12-18T13:02:03.616Z,12.50
2022-12-18T13:04:30.611Z,12.70
2022-12-18T13:06:57.096Z,12.00
2022-12-18T13:09:23.960Z,12.13
2022-12-18T13:12:08.702Z,8.93
2022-12-18T13:14:36.497Z,7.93
2022-12-18T13:17:18.476Z,7.95
2022-12-18T13:19:45.202Z,6.95
2022-12-18T13:22:24.601Z,6.80
2022-12-18T13:24:51.694Z,6.82
2022-12-18T13:27:37.366Z,7.43
2022-12-18T13:30:19.157Z,7.45
2022-12-18T13:32:45.709Z,7.60
2022-12-18T13:35:19.715Z,5.00
2022-12-18T13:37:53.058Z,4.78
2022-12-18T13:40:37.947Z,3.80
2022-12-18T13:43:14.972Z,4.07
2022-12-18T13:45:43.589Z,4.83
2022-12-18T13:48:18.270Z,3.10
2022-12-18T13:50:49.109Z,3.45
2022-12-18T13:53:28.471Z,2.72
2022-12-18T13:55:55.373Z,3.33
2022-12-18T13:58:21.790Z,2.45
2022-12-18T14:00:49.107Z,4.55
2022-12-18T14:03:22.403Z,2.55
2022-12-18T14:05:54.450Z,2.80
2022-12-18T14:08:21.438Z,2.15
2022-12-18T14:10:49.985Z,2.30
2022-12-18T14:13:20.567Z,2.97
2022-12-18T14:15:48.831Z,2.72
2022-12-18T14:18:15.149Z,3.22
2022-12-18T14:20:46.560Z,3.05
2022-12-18T14:23:34.250Z,3.53
2022-12-18T14:26:05.699Z,2.65
2022-12-18T14:28:32.651Z,3.00
2022-12-18T14:30:59.172Z,2.47
2022-12-18T14:33:27.173Z,2.53
2022-12-18T14:38:26.087Z,2.30
2022-12-18T14:40:56.829Z,2.92
2022-12-18T14:43:23.699Z,3.20
2022-12-18T14:45:50.797Z,3.00
2022-12-18T14:48:26.232Z,2.55
2022-12-18T14:50:57.081Z,2.72
2022-12-18T14:53:54.410Z,3.47
2022-12-18T14:56:22.971Z,2.05
2022-12-18T15:01:19.743Z,2.95
2022-12-18T15:03:46.377Z,2.00
2022-12-18T15:06:17.104Z,1.70
2022-12-18T15:08:43.568Z,2.17
2022-12-18T15:11:26.576Z,1.65
2022-12-18T15:13:52.941Z,1.92
2022-12-18T15:16:19.505Z,1.40
2022-12-18T15:18:47.095Z,1.73
2022-12-18T15:21:17.364Z,2.15
2022-12-18T15:23:48.291Z,3.90
2022-12-18T15:26:16.100Z,6.60
2022-12-18T15:29:00.950Z,3.83
2022-12-18T15:31:31.382Z,3.40
2022-12-18T15:33:59.783Z,2.63
2022-12-18T15:36:29.083Z,3.15
2022-12-18T15:39:04.929Z,1.95
2022-12-18T15:41:32.698Z,1.83
2022-12-18T15:44:00.527Z,2.67
2022-12-18T15:46:27.684Z,4.18
2022-12-18T15:48:59.758Z,2.95
2022-12-18T15:51:30.711Z,1.95
2022-12-18T15:53:57.829Z,5.32
2022-12-18T15:56:42.806Z,2.90
2022-12-18T15:59:13.682Z,5.75
2022-12-18T16:01:42.699Z,3.80
2022-12-18T16:04:11.548Z,2.25
2022-12-18T16:07:05.363Z,2.63
2022-12-18T16:09:26.542Z,3.22
2022-12-18T16:11:53.176Z,2.85
2022-12-18T16:14:23.974Z,3.20
2022-12-18T16:16:51.673Z,3.13
2022-12-18T16:19:18.501Z,3.50
2022-12-18T16:21:45.007Z,3.80
2022-12-18T16:24:16.878Z,2.78
2022-12-18T16:26:43.755Z,4.13
2022-12-18T16:29:10.501Z,4.95
2022-12-18T16:32:16.460Z,4.38
2022-12-18T16:38:04.639Z,4.32
2022-12-18T16:40:32.449Z,3.97
2022-12-18T16:42:58.751Z,4.47
2022-12-18T16:45:33.981Z,4.70
2022-12-18T16:48:00.354Z,3.90
2022-12-18T16:50:26.696Z,4.40
2022-12-18T16:53:11.992Z,3.83
2022-12-18T16:55:38.379Z,4.95
2022-12-18T16:58:04.707Z,4.13
2022-12-18T17:00:31.123Z,3.92
2022-12-18T17:02:57.603Z,4.65
2022-12-18T17:05:24.019Z,4.15
2022-12-18T17:07:50.372Z,4.38
2022-12-18T17:10:16.751Z,4.70
2022-12-18T17:12:43.456Z,4.95
2022-12-18T17:15:10.356Z,4.20
2022-12-18T17:17:36.706Z,4.72
2022-12-18T17:20:05.709Z,5.05
2022-12-18T17:22:32.031Z,5.50
2022-12-18T17:25:15.583Z,6.15
2022-12-18T17:27:41.910Z,5.57
2022-12-18T17:30:08.625Z,6.00
2022-12-18T17:32:34.969Z,5.97
2022-12-18T17:35:06.832Z,6.32
2022-12-18T17:37:33.607Z,6.53
2022-12-18T17:39:59.976Z,6.07
2022-12-18T17:42:26.385Z,6.78
2022-12-18T17:51:43.250Z,3.78
2022-12-18T17:54:10.451Z,4.90
2022-12-18T17:56:36.889Z,4.73
2022-12-18T17:59:04.063Z,9.40
2022-12-18T18:01:30.524Z,5.28
2022-12-18T18:03:57.814Z,4.10
2022-12-18T18:06:24.339Z,6.68
2022-12-18T18:08:51.117Z,7.93
2022-12-18T18:11:38.755Z,5.40
2022-12-18T18:14:13.165Z,4.63
2022-12-18T18:20:01.313Z,5.55
2022-12-18T18:22:27.687Z,6.80
2022-12-18T18:25:32.172Z,4.28
2022-12-18T18:27:58.689Z,5.13
2022-12-18T18:30:25.002Z,4.32
2022-12-18T18:32:51.460Z,5.20
2022-12-18T18:38:05.736Z,2.95
2022-12-18T18:40:32.049Z,2.97
2022-12-18T18:42:58.433Z,4.18
2022-12-18T18:45:24.870Z,5.63
2022-12-18T18:47:51.263Z,2.80
2022-12-18T18:50:19.392Z,6.90
2022-12-18T18:52:45.776Z,3.05
2022-12-18T18:55:13.694Z,5.65
2022-12-18T18:57:50.423Z,4.50
2022-12-18T19:00:17.049Z,6.47
2022-12-18T19:02:43.530Z,4.57
2022-12-18T19:05:13.260Z,6.78
2022-12-18T19:07:39.595Z,4.63
2022-12-18T19:10:06.242Z,5.75
2022-12-18T19:12:51.386Z,5.00
2022-12-18T19:15:17.724Z,4.03
2022-12-18T19:17:44.824Z,3.28
2022-12-18T19:20:13.720Z,8.30
2022-12-18T19:22:40.108Z,4.80
2022-12-18T19:25:06.727Z,4.35
2022-12-18T19:27:33.142Z,7.50
2022-12-18T19:29:59.470Z,4.03
2022-12-18T19:32:25.891Z,4.03
2022-12-18T19:34:52.962Z,3.63
2022-12-18T19:37:19.501Z,7.40
2022-12-18T19:39:46.025Z,3.58
2022-12-18T19:42:12.801Z,6.32
2022-12-18T19:44:39.796Z,5.73
2022-12-18T19:47:06.144Z,8.63
2022-12-18T19:49:32.690Z,5.45
2022-12-18T19:51:59.118Z,4.90
2022-12-18T19:54:25.707Z,3.25
2022-12-18T19:56:53.373Z,3.47
2022-12-18T19:59:19.752Z,4.45
2022-12-18T20:01:46.118Z,3.92
2022-12-18T20:04:12.614Z,3.55
2022-12-18T20:06:49.438Z,3.40
2022-12-18T20:09:16.299Z,5.40
2022-12-18T20:11:43.054Z,3.97
2022-12-18T20:14:13.616Z,5.85
2022-12-18T20:16:40.185Z,2.83
2022-12-18T20:19:06.965Z,2.78
2022-12-18T20:21:33.684Z,2.80
2022-12-18T20:24:01.242Z,2.25
2022-12-18T20:26:27.984Z,1.60
2022-12-18T20:28:54.863Z,0.98
2022-12-18T20:31:21.317Z,2.53
2022-12-18T20:33:49.932Z,1.20
2022-12-18T20:36:22.398Z,3.20
2022-12-18T20:38:50.029Z,1.35
2022-12-18T20:41:17.353Z,4.25
2022-12-18T20:43:44.513Z,2.08
2022-12-18T20:46:12.281Z,0.77
2022-12-18T20:48:41.956Z,1.20
2022-12-18T20:51:10.006Z,2.97
2022-12-18T20:53:36.844Z,1.73
2022-12-18T20:56:09.005Z,1.23
2022-12-18T20:58:36.072Z,1.95
2022-12-18T21:01:06.267Z,2.03
2022-12-18T21:03:32.850Z,5.13
2022-12-18T21:05:59.206Z,2.05
2022-12-18T21:08:25.534Z,4.65
2022-12-18T21:10:51.924Z,4.65
2022-12-18T21:13:22.509Z,6.25
2022-12-18T21:15:48.886Z,4.67
2022-12-18T21:18:15.251Z,6.10
2022-12-18T21:20:41.601Z,8.45
2022-12-18T21:23:16.330Z,6.28
2022-12-18T21:25:43.712Z,10.52
2022-12-18T21:28:11.661Z,7.63
2022-12-18T21:30:38.194Z,5.80
2022-12-18T21:33:04.602Z,7.75
2022-12-18T21:35:31.021Z,6.40
2022-12-18T21:37:58.569Z,7.18
2022-12-18T21:40:25.041Z,6.47
2022-12-18T21:43:10.440Z,9.73
2022-12-18T21:45:42.436Z,9.05
2022-12-18T21:48:08.801Z,8.95
2022-12-18T21:50:35.137Z,9.60
2022-12-18T21:53:01.480Z,10.48
2022-12-18T21:55:27.832Z,11.55
2022-12-18T21:57:54.202Z,11.10
2022-12-18T22:00:20.620Z,7.95
2022-12-18T22:02:48.172Z,6.35
2022-12-18T22:07:41.307Z,8.32
2022-12-18T22:10:07.864Z,6.93
2022-12-18T22:12:43.092Z,6.30
2022-12-18T22:15:11.050Z,6.03
2022-12-18T22:17:39.072Z,5.35
2022-12-18T22:20:05.643Z,6.30
2022-12-18T22:22:31.952Z,7.53
2022-12-18T22:24:58.277Z,6.70
2022-12-18T22:27:24.638Z,7.40
2022-12-18T22:30:05.944Z,9.40
2022-12-18T22:32:33.186Z,10.40
2022-12-18T22:35:05.801Z,5.65
2022-12-18T22:37:34.642Z,8.48
2022-12-18T22:40:03.110Z,5.07
2022-12-18T22:42:29.949Z,6.57
2022-12-18T22:44:56.273Z,4.93
2022-12-18T22:47:26.527Z,4.35
2022-12-18T22:49:55.648Z,5.60
2022-12-18T22:52:22.014Z,3.90
2022-12-18T22:54:50.651Z,9.93
2022-12-18T22:57:19.446Z,3.00
2022-12-18T22:59:45.756Z,7.05
2022-12-18T23:02:12.194Z,4.70
2022-12-18T23:04:38.604Z,4.95
2022-12-18T23:07:05.395Z,4.03
2022-12-18T23:09:31.849Z,3.17
2022-12-18T23:11:58.171Z,5.03
2022-12-18T23:14:24.596Z,1.00
2022-12-18T23:16:52.273Z,1.75
2022-12-18T23:19:19.788Z,1.35
2022-12-18T23:21:46.151Z,1.13
2022-12-18T23:24:12.528Z,3.30
2022-12-18T23:26:38.883Z,2.38
2022-12-18T23:29:05.279Z,2.97
2022-12-18T23:31:33.118Z,1.90
2022-12-18T23:36:25.844Z,1.33
2022-12-18T23:38:53.680Z,1.02
2022-12-18T23:43:46.312Z,1.80
2022-12-18T23:46:17.401Z,1.48
2022-12-18T23:48:44.103Z,5.20
2022-12-18T23:51:11.016Z,2.17
2022-12-18T23:53:37.977Z,2.53
2022-12-18T23:56:08.458Z,3.00
2022-12-18T23:58:35.480Z,2.72
